createdAt,value
2023-04-01T00:00:13.473Z,101408.56
2023-04-01T00:01:19.035Z,101408.25
2023-04-01T00:02:22.583Z,101400.19
2023-04-01T00:03:32.101Z,101405.53
2023-04-01T00:04:35.052Z,101405.28
2023-04-01T00:05:39.628Z,101407.44
2023-04-01T00:06:43.885Z,101402.44
2023-04-01T00:07:48.182Z,101400.50
2023-04-01T00:08:54.560Z,101398.22
2023-04-01T00:10:00.025Z,101400.19
2023-04-01T00:11:07.249Z,101394.81
2023-04-01T00:12:10.042Z,101401.53
2023-04-01T00:13:15.992Z,101405.66
2023-04-01T00:14:24.207Z,101397.97
2023-04-01T00:15:28.287Z,101401.84
2023-04-01T00:16:32.747Z,101400.81
2023-04-01T00:17:36.151Z,101405.19
2023-04-01T00:18:45.190Z,101410.06
2023-04-01T00:19:47.855Z,101402.19
2023-04-01T00:20:58.713Z,101406.78
2023-04-01T00:22:02.613Z,101409.97
2023-04-01T00:23:07.128Z,101399.16
2023-04-01T00:24:10.715Z,101396.53
2023-04-01T00:25:18.510Z,101392.78
2023-04-01T00:26:27.667Z,101404.66
2023-04-01T00:27:31.772Z,101399.47
2023-04-01T00:28:37.261Z,101399.00
2023-04-01T00:29:42.955Z,101400.28
2023-04-01T00:30:47.005Z,101407.75
2023-04-01T00:31:50.435Z,101393.56
2023-04-01T00:32:55.687Z,101402.28
2023-04-01T00:34:01.215Z,101394.84
2023-04-01T00:35:05.418Z,101392.78
2023-04-01T00:36:10.964Z,101397.75
2023-04-01T00:37:15.562Z,101400.91
2023-04-01T00:38:20.028Z,101394.84
2023-04-01T00:39:24.291Z,101404.25
2023-04-01T00:40:30.339Z,101398.19
2023-04-01T00:41:34.383Z,101402.50
2023-04-01T00:42:37.112Z,101404.91
2023-04-01T00:43:40.905Z,101399.16
2023-04-01T00:44:44.452Z,101403.31
2023-04-01T00:45:49.661Z,101406.41
2023-04-01T00:46:53.882Z,101404.63
2023-04-01T00:48:01.234Z,101398.56
2023-04-01T00:49:05.814Z,101398.34
2023-04-01T00:50:11.357Z,101395.63
2023-04-01T00:51:20.128Z,101386.31
2023-04-01T00:52:27.092Z,101392.94
2023-04-01T00:53:32.776Z,101391.41
2023-04-01T00:54:37.446Z,101380.59
2023-04-01T00:55:56.762Z,101378.03
2023-04-01T00:57:03.223Z,101384.59
2023-04-01T00:58:09.618Z,101380.03
2023-04-01T00:59:17.410Z,101384.59
2023-04-01T01:00:22.528Z,101383.47
2023-04-01T01:01:36.525Z,101385.53
2023-04-01T01:02:42.408Z,101386.44
2023-04-01T01:03:48.726Z,101383.69
2023-04-01T01:04:54.712Z,101383.56
2023-04-01T01:06:10.029Z,101381.47
2023-04-01T01:07:29.822Z,101382.09
2023-04-01T01:08:47.881Z,101379.47
2023-04-01T01:10:04.132Z,101382.44
2023-04-01T01:11:12.880Z,101389.75
2023-04-01T01:12:26.774Z,101385.53
2023-04-01T01:13:49.088Z,101383.91
2023-04-01T01:15:04.481Z,101387.13
2023-04-01T01:16:18.651Z,101381.66
2023-04-01T01:17:32.008Z,101384.84
2023-04-01T01:18:40.405Z,101390.09
2023-04-01T01:20:12.759Z,101392.06
2023-04-01T01:21:44.398Z,101392.38
2023-04-01T01:23:02.202Z,101395.41
2023-04-01T01:24:32.677Z,101396.22
2023-04-01T01:25:42.568Z,101395.41
2023-04-01T01:27:04.714Z,101394.13
2023-04-01T01:28:29.273Z,101389.88
2023-04-01T01:30:01.213Z,101384.81
2023-04-01T01:31:15.345Z,101383.69
2023-04-01T01:32:40.641Z,101385.34
2023-04-01T01:34:13.330Z,101383.06
2023-04-01T01:35:25.598Z,101387.66
2023-04-01T01:36:35.836Z,101385.53
2023-04-01T01:37:43.217Z,101384.31
2023-04-01T01:38:48.803Z,101383.88
2023-04-01T01:40:00.069Z,101386.53
2023-04-01T01:41:06.786Z,101390.59
2023-04-01T01:42:13.370Z,101389.66
2023-04-01T01:43:23.449Z,101394.84
2023-04-01T01:44:30.004Z,101385.84
2023-04-01T01:45:48.520Z,101382.59
2023-04-01T01:47:02.227Z,101387.53
2023-04-01T01:48:17.546Z,101391.00
2023-04-01T01:49:31.538Z,101385.94
2023-04-01T01:50:37.757Z,101389.28
2023-04-01T01:51:44.389Z,101394.75
2023-04-01T01:53:04.663Z,101385.44
2023-04-01T01:54:08.450Z,101384.59
2023-04-01T01:55:30.101Z,101387.44
2023-04-01T01:56:37.697Z,101381.88
2023-04-01T01:57:46.307Z,101384.19
2023-04-01T01:58:54.476Z,101386.88
2023-04-01T02:00:14.134Z,101391.66
2023-04-01T02:01:30.826Z,101390.88
2023-04-01T02:02:38.605Z,101384.59
2023-04-01T02:03:44.862Z,101378.06
2023-04-01T02:04:48.584Z,101381.63
2023-04-01T02:05:57.854Z,101387.94
2023-04-01T02:07:04.827Z,101382.34
2023-04-01T02:08:22.759Z,101382.34
2023-04-01T02:09:28.262Z,101371.59
2023-04-01T02:10:39.941Z,101383.13
2023-04-01T02:11:52.371Z,101377.66
2023-04-01T02:13:07.975Z,101374.00
2023-04-01T02:14:23.848Z,101370.09
2023-04-01T02:15:39.000Z,101369.19
2023-04-01T02:16:57.610Z,101374.75
2023-04-01T02:18:08.175Z,101369.28
2023-04-01T02:19:15.661Z,101370.56
2023-04-01T02:20:31.284Z,101369.06
2023-04-01T02:21:39.321Z,101366.16
2023-04-01T02:22:48.464Z,101363.94
2023-04-01T02:23:57.082Z,101369.78
2023-04-01T02:25:11.966Z,101369.69
2023-04-01T02:26:27.746Z,101372.06
2023-04-01T02:27:40.085Z,101374.75
2023-04-01T02:28:46.069Z,101372.94
2023-04-01T02:29:53.735Z,101377.78
2023-04-01T02:30:58.246Z,101371.72
2023-04-01T02:32:02.086Z,101370.47
2023-04-01T02:33:07.900Z,101374.44
2023-04-01T02:34:12.456Z,101375.88
2023-04-01T02:35:21.162Z,101377.25
2023-04-01T02:36:25.701Z,101374.72
2023-04-01T02:37:33.986Z,101377.66
2023-04-01T02:38:39.232Z,101370.31
2023-04-01T02:39:43.787Z,101354.56
2023-04-01T02:40:51.983Z,101360.50
2023-04-01T02:41:57.382Z,101373.09
2023-04-01T02:43:01.355Z,101370.72
2023-04-01T02:44:05.228Z,101374.63
2023-04-01T02:45:11.276Z,101378.66
2023-04-01T02:46:13.877Z,101373.81
2023-04-01T02:47:17.696Z,101371.19
2023-04-01T02:48:25.529Z,101379.38
2023-04-01T02:49:29.655Z,101371.09
2023-04-01T02:50:33.208Z,101366.88
2023-04-01T02:51:40.059Z,101371.81
2023-04-01T02:52:50.962Z,101370.63
2023-04-01T02:53:56.929Z,101372.31
2023-04-01T02:55:01.289Z,101366.56
2023-04-01T02:56:13.720Z,101362.28
2023-04-01T02:57:17.238Z,101357.44
2023-04-01T02:58:23.141Z,101361.50
2023-04-01T02:59:26.977Z,101372.56
2023-04-01T03:00:32.408Z,101364.91
2023-04-01T03:01:45.870Z,101366.88
2023-04-01T03:02:51.513Z,101370.78
2023-04-01T03:03:55.544Z,101376.03
2023-04-01T03:05:00.714Z,101373.59
2023-04-01T03:06:11.855Z,101375.56
2023-04-01T03:07:19.701Z,101378.44
2023-04-01T03:08:30.243Z,101380.81
2023-04-01T03:09:32.794Z,101379.56
2023-04-01T03:10:36.230Z,101384.31
2023-04-01T03:11:42.376Z,101384.72
2023-04-01T03:12:46.082Z,101385.13
2023-04-01T03:13:49.905Z,101379.38
2023-04-01T03:14:53.751Z,101381.69
2023-04-01T03:15:57.615Z,101385.75
2023-04-01T03:17:04.086Z,101384.59
2023-04-01T03:18:10.376Z,101379.34
2023-04-01T03:19:17.656Z,101385.34
2023-04-01T03:20:26.010Z,101390.28
2023-04-01T03:21:31.440Z,101383.22
2023-04-01T03:22:41.426Z,101388.56
2023-04-01T03:23:49.772Z,101386.81
2023-04-01T03:24:52.398Z,101381.97
2023-04-01T03:25:56.733Z,101383.16
2023-04-01T03:27:00.002Z,101382.88
2023-04-01T03:28:14.382Z,101376.59
2023-04-01T03:29:17.364Z,101380.03
2023-04-01T03:30:22.364Z,101383.16
2023-04-01T03:31:32.091Z,101383.56
2023-04-01T03:32:36.093Z,101383.88
2023-04-01T03:33:41.296Z,101379.09
2023-04-01T03:34:44.866Z,101381.16
2023-04-01T03:35:53.329Z,101380.94
2023-04-01T03:37:00.832Z,101381.97
2023-04-01T03:38:08.356Z,101382.44
2023-04-01T03:39:19.798Z,101378.53
2023-04-01T03:40:23.690Z,101373.97
2023-04-01T03:41:28.788Z,101371.47
2023-04-01T03:42:33.862Z,101371.47
2023-04-01T03:43:38.805Z,101368.84
2023-04-01T03:44:51.455Z,101369.63
2023-04-01T03:45:58.602Z,101377.56
2023-04-01T03:47:01.607Z,101378.13
2023-04-01T03:48:07.711Z,101379.09
2023-04-01T03:49:12.805Z,101384.59
2023-04-01T03:50:16.704Z,101389.19
2023-04-01T03:51:20.086Z,101385.06
2023-04-01T03:52:24.024Z,101381.97
2023-04-01T03:53:28.127Z,101377.75
2023-04-01T03:54:33.302Z,101386.50
2023-04-01T03:55:38.106Z,101385.53
2023-04-01T03:56:43.412Z,101388.66
2023-04-01T03:57:46.106Z,101380.38
2023-04-01T03:58:55.716Z,101380.19
2023-04-01T03:59:58.593Z,101377.34
2023-04-01T04:01:02.710Z,101380.28
2023-04-01T04:02:05.351Z,101380.03
2023-04-01T04:03:10.002Z,101369.53
2023-04-01T04:04:14.181Z,101368.97
2023-04-01T04:05:18.143Z,101368.50
2023-04-01T04:06:21.201Z,101365.69
2023-04-01T04:07:24.771Z,101368.50
2023-04-01T04:08:35.301Z,101361.72
2023-04-01T04:09:40.832Z,101363.63
2023-04-01T04:10:47.573Z,101366.25
2023-04-01T04:11:52.043Z,101369.91
2023-04-01T04:12:58.197Z,101368.47
2023-04-01T04:14:00.829Z,101365.44
2023-04-01T04:15:04.649Z,101370.13
2023-04-01T04:16:08.545Z,101370.59
2023-04-01T04:17:17.339Z,101372.75
2023-04-01T04:18:20.954Z,101375.44
2023-04-01T04:19:26.029Z,101369.88
2023-04-01T04:20:28.436Z,101373.59
2023-04-01T04:21:32.756Z,101372.63
2023-04-01T04:22:35.414Z,101372.38
2023-04-01T04:23:39.334Z,101379.66
2023-04-01T04:24:43.210Z,101382.28
2023-04-01T04:25:56.057Z,101380.75
2023-04-01T04:26:59.512Z,101376.72
2023-04-01T04:28:02.073Z,101374.31
2023-04-01T04:29:05.561Z,101376.00
2023-04-01T04:30:10.379Z,101374.81
2023-04-01T04:31:13.965Z,101375.13
2023-04-01T04:32:16.331Z,101372.50
2023-04-01T04:33:20.420Z,101375.06
2023-04-01T04:34:23.503Z,101373.00
2023-04-01T04:35:26.981Z,101368.09
2023-04-01T04:36:29.339Z,101356.34
2023-04-01T04:37:32.805Z,101364.25
2023-04-01T04:38:35.404Z,101367.13
2023-04-01T04:39:39.324Z,101379.50
2023-04-01T04:40:44.115Z,101373.44
2023-04-01T04:41:47.770Z,101374.41
2023-04-01T04:42:50.198Z,101378.84
2023-04-01T04:43:56.041Z,101380.16
2023-04-01T04:44:58.628Z,101373.91
2023-04-01T04:46:02.035Z,101375.34
2023-04-01T04:47:04.617Z,101376.91
2023-04-01T04:48:10.251Z,101371.34
2023-04-01T04:49:12.726Z,101374.03
2023-04-01T04:50:16.524Z,101379.88
2023-04-01T04:51:20.689Z,101379.53
2023-04-01T04:52:24.057Z,101382.16
2023-04-01T04:53:27.307Z,101370.72
2023-04-01T04:54:31.917Z,101377.91
2023-04-01T04:55:34.463Z,101369.13
2023-04-01T04:56:39.426Z,101366.00
2023-04-01T04:57:42.698Z,101366.50
2023-04-01T04:58:46.309Z,101354.88
2023-04-01T04:59:48.609Z,101356.97
2023-04-01T05:00:52.179Z,101369.25
2023-04-01T05:01:54.631Z,101364.81
2023-04-01T05:02:58.086Z,101372.44
2023-04-01T05:04:00.789Z,101364.22
2023-04-01T05:05:04.393Z,101372.63
2023-04-01T05:06:08.355Z,101371.81
2023-04-01T05:07:12.177Z,101363.34
2023-04-01T05:08:14.854Z,101365.22
2023-04-01T05:09:18.760Z,101368.38
2023-04-01T05:10:22.005Z,101369.19
2023-04-01T05:11:27.150Z,101363.94
2023-04-01T05:12:31.067Z,101360.72
2023-04-01T05:13:34.557Z,101358.59
2023-04-01T05:14:37.246Z,101362.09
2023-04-01T05:15:40.715Z,101367.34
2023-04-01T05:16:43.391Z,101364.41
2023-04-01T05:17:47.330Z,101370.16
2023-04-01T05:18:49.748Z,101374.59
2023-04-01T05:19:53.185Z,101374.38
2023-04-01T05:20:56.828Z,101368.56
2023-04-01T05:22:00.567Z,101373.03
2023-04-01T05:23:03.272Z,101375.72
2023-04-01T05:24:10.765Z,101377.00
2023-04-01T05:25:13.234Z,101375.88
2023-04-01T05:26:17.443Z,101375.09
2023-04-01T05:27:19.851Z,101384.81
2023-04-01T05:28:25.056Z,101389.03
2023-04-01T05:29:28.128Z,101384.66
2023-04-01T05:30:31.692Z,101388.88
2023-04-01T05:31:35.008Z,101387.28
2023-04-01T05:32:39.017Z,101380.66
2023-04-01T05:33:41.602Z,101380.19
2023-04-01T05:34:45.508Z,101381.84
2023-04-01T05:35:48.390Z,101395.28
2023-04-01T05:36:51.771Z,101389.88
2023-04-01T05:37:54.378Z,101391.78
2023-04-01T05:38:58.084Z,101389.88
2023-04-01T05:40:00.710Z,101390.19
2023-04-01T05:41:06.046Z,101373.88
2023-04-01T05:42:09.937Z,101367.97
2023-04-01T05:43:12.824Z,101358.84
2023-04-01T05:44:18.573Z,101347.00
2023-04-01T05:45:22.489Z,101346.69
2023-04-01T05:46:27.568Z,101347.72
2023-04-01T05:47:30.141Z,101351.66
2023-04-01T05:48:36.038Z,101352.44
2023-04-01T05:49:38.742Z,101357.75
2023-04-01T05:50:44.150Z,101363.44
2023-04-01T05:51:47.385Z,101383.28
2023-04-01T05:52:51.374Z,101383.59
2023-04-01T05:53:54.267Z,101383.81
2023-04-01T05:54:58.262Z,101391.22
2023-04-01T05:56:04.908Z,101388.28
2023-04-01T05:57:08.663Z,101384.03
2023-04-01T05:58:11.809Z,101393.78
2023-04-01T05:59:15.612Z,101391.69
2023-04-01T06:00:21.084Z,101396.47
2023-04-01T06:01:24.853Z,101396.38
2023-04-01T06:02:27.384Z,101396.59
2023-04-01T06:03:31.061Z,101391.94
2023-04-01T06:04:38.914Z,101391.41
2023-04-01T06:05:44.433Z,101394.13
2023-04-01T06:06:47.186Z,101398.28
2023-04-01T06:07:51.026Z,101394.59
2023-04-01T06:08:54.020Z,101399.13
2023-04-01T06:09:57.579Z,101399.38
2023-04-01T06:11:14.831Z,101394.56
2023-04-01T06:12:51.092Z,101400.28
2023-04-01T06:14:14.574Z,101394.28
2023-04-01T06:15:37.034Z,101385.66
2023-04-01T06:16:53.370Z,101392.03
2023-04-01T06:18:29.214Z,101394.66
2023-04-01T06:19:42.966Z,101405.38
2023-04-01T06:20:55.763Z,101403.59
2023-04-01T06:22:31.953Z,101395.38
2023-04-01T06:23:55.642Z,101403.84
2023-04-01T06:25:33.114Z,101402.31
2023-04-01T06:26:40.854Z,101397.59
2023-04-01T06:28:02.462Z,101394.78
2023-04-01T06:29:39.767Z,101389.00
2023-04-01T06:30:47.954Z,101392.38
2023-04-01T06:32:24.413Z,101394.91
2023-04-01T06:33:36.799Z,101389.38
2023-04-01T06:35:04.478Z,101390.53
2023-04-01T06:36:26.363Z,101383.22
2023-04-01T06:37:53.190Z,101385.47
2023-04-01T06:39:12.531Z,101369.56
2023-04-01T06:40:38.189Z,101369.34
2023-04-01T06:41:59.223Z,101366.34
2023-04-01T06:43:14.746Z,101369.34
2023-04-01T06:44:26.732Z,101370.91
2023-04-01T06:45:38.347Z,101359.91
2023-04-01T06:46:48.419Z,101369.50
2023-04-01T06:48:16.880Z,101370.81
2023-04-01T06:49:34.512Z,101374.97
2023-04-01T06:50:57.291Z,101371.78
2023-04-01T06:52:12.145Z,101369.16
2023-04-01T06:53:19.520Z,101368.78
2023-04-01T06:54:28.402Z,101366.03
2023-04-01T06:55:39.008Z,101372.06
2023-04-01T06:56:47.644Z,101367.91
2023-04-01T06:57:54.157Z,101379.06
2023-04-01T06:59:03.511Z,101371.31
2023-04-01T07:00:13.722Z,101381.44
2023-04-01T07:01:23.275Z,101375.69
2023-04-01T07:02:34.927Z,101381.38
2023-04-01T07:03:42.846Z,101389.75
2023-04-01T07:04:51.205Z,101389.16
2023-04-01T07:05:55.460Z,101388.84
2023-04-01T07:07:02.365Z,101391.84
2023-04-01T07:08:07.657Z,101397.03
2023-04-01T07:09:17.415Z,101390.75
2023-04-01T07:10:24.694Z,101378.19
2023-04-01T07:11:32.357Z,101378.19
2023-04-01T07:12:43.473Z,101371.53
2023-04-01T07:13:53.656Z,101371.16
2023-04-01T07:14:58.757Z,101374.34
2023-04-01T07:16:13.320Z,101367.25
2023-04-01T07:17:18.874Z,101368.53
2023-04-01T07:18:31.030Z,101370.34
2023-04-01T07:19:39.962Z,101366.44
2023-04-01T07:20:42.492Z,101364.66
2023-04-01T07:21:50.546Z,101372.94
2023-04-01T07:22:56.187Z,101366.72
2023-04-01T07:24:06.739Z,101365.25
2023-04-01T07:25:15.145Z,101356.22
2023-04-01T07:26:21.908Z,101354.44
2023-04-01T07:27:26.108Z,101357.69
2023-04-01T07:28:33.085Z,101356.91
2023-04-01T07:29:36.934Z,101357.22
2023-04-01T07:30:51.951Z,101360.31
2023-04-01T07:32:15.373Z,101360.06
2023-04-01T07:33:38.836Z,101362.41
2023-04-01T07:34:51.849Z,101357.72
2023-04-01T07:36:00.195Z,101355.06
2023-04-01T07:37:12.352Z,101367.41
2023-04-01T07:38:29.324Z,101367.81
2023-04-01T07:39:42.494Z,101365.53
2023-04-01T07:40:53.668Z,101373.25
2023-04-01T07:42:04.061Z,101367.69
2023-04-01T07:43:32.882Z,101368.56
2023-04-01T07:44:47.176Z,101370.47
2023-04-01T07:45:58.182Z,101366.50
2023-04-01T07:47:23.585Z,101374.53
2023-04-01T07:48:35.079Z,101366.75
2023-04-01T07:49:49.001Z,101372.59
2023-04-01T07:51:02.874Z,101370.16
2023-04-01T07:52:12.475Z,101370.81
2023-04-01T07:53:25.582Z,101368.91
2023-04-01T07:54:41.637Z,101368.72
2023-04-01T07:55:50.285Z,101372.16
2023-04-01T07:57:04.172Z,101374.34
2023-04-01T07:58:16.554Z,101367.81
2023-04-01T07:59:29.104Z,101364.66
2023-04-01T08:00:40.636Z,101369.03
2023-04-01T08:01:52.979Z,101380.63
2023-04-01T08:03:19.470Z,101380.66
2023-04-01T08:04:39.507Z,101379.22
2023-04-01T08:05:49.277Z,101382.97
2023-04-01T08:07:00.603Z,101384.66
2023-04-01T08:08:15.344Z,101383.19
2023-04-01T08:09:25.596Z,101397.25
2023-04-01T08:10:38.054Z,101390.66
2023-04-01T08:12:00.301Z,101393.47
2023-04-01T08:13:15.844Z,101401.31
2023-04-01T08:14:26.283Z,101397.00
2023-04-01T08:15:36.375Z,101391.97
2023-04-01T08:16:47.100Z,101392.50
2023-04-01T08:18:04.149Z,101392.78
2023-04-01T08:19:18.405Z,101391.13
2023-04-01T08:20:32.954Z,101386.88
2023-04-01T08:21:45.118Z,101394.81
2023-04-01T08:22:53.087Z,101395.56
2023-04-01T08:23:59.740Z,101393.81
2023-04-01T08:25:07.827Z,101404.00
2023-04-01T08:26:17.698Z,101410.63
2023-04-01T08:27:26.783Z,101402.28
2023-04-01T08:28:34.868Z,101407.13
2023-04-01T08:29:45.443Z,101401.06
2023-04-01T08:30:54.823Z,101402.94
2023-04-01T08:32:02.123Z,101407.41
2023-04-01T08:33:13.024Z,101402.44
2023-04-01T08:34:20.831Z,101404.56
2023-04-01T08:35:35.544Z,101399.91
2023-04-01T08:36:45.904Z,101408.91
2023-04-01T08:37:49.837Z,101399.97
2023-04-01T08:38:57.096Z,101400.00
2023-04-01T08:40:04.382Z,101403.91
2023-04-01T08:41:39.560Z,101399.47
2023-04-01T08:42:58.025Z,101396.56
2023-04-01T08:44:21.692Z,101401.31
2023-04-01T08:45:47.644Z,101397.81
2023-04-01T08:47:10.821Z,101393.16
2023-04-01T08:48:30.442Z,101395.50
2023-04-01T08:50:04.094Z,101397.81
2023-04-01T08:51:23.100Z,101392.53
2023-04-01T08:52:36.368Z,101392.56
2023-04-01T08:54:14.368Z,101393.72
2023-04-01T08:55:54.515Z,101390.44
2023-04-01T08:57:01.868Z,101391.72
2023-04-01T08:58:40.965Z,101392.56
2023-04-01T08:59:59.849Z,101391.84
2023-04-01T09:01:16.223Z,101398.00
2023-04-01T09:02:49.662Z,101396.34
2023-04-01T09:04:16.219Z,101398.66
2023-04-01T09:06:01.018Z,101397.81
2023-04-01T09:07:21.362Z,101398.31
2023-04-01T09:08:41.505Z,101396.91
2023-04-01T09:10:33.064Z,101395.31
2023-04-01T09:11:58.136Z,101391.69
2023-04-01T09:13:29.549Z,101393.03
2023-04-01T09:15:02.010Z,101391.44
2023-04-01T09:16:30.153Z,101396.22
2023-04-01T09:17:53.654Z,101392.28
2023-04-01T09:19:24.018Z,101390.44
2023-04-01T09:20:49.997Z,101390.38
2023-04-01T09:22:25.066Z,101388.47
2023-04-01T09:24:08.749Z,101390.88
2023-04-01T09:25:49.228Z,101393.56
2023-04-01T09:27:07.696Z,101387.56
2023-04-01T09:28:16.931Z,101384.47
2023-04-01T09:29:34.840Z,101379.47
2023-04-01T09:31:12.259Z,101386.06
2023-04-01T09:32:55.667Z,101388.72
2023-04-01T09:34:25.617Z,101392.91
2023-04-01T09:35:42.333Z,101392.59
2023-04-01T09:36:52.697Z,101393.34
2023-04-01T09:38:14.621Z,101383.81
2023-04-01T09:39:37.944Z,101392.31
2023-04-01T09:40:51.359Z,101393.63
2023-04-01T09:42:07.441Z,101394.91
2023-04-01T09:43:42.333Z,101392.03
2023-04-01T09:44:54.080Z,101396.84
2023-04-01T09:46:21.814Z,101395.03
2023-04-01T09:47:43.824Z,101389.47
2023-04-01T09:49:26.125Z,101394.22
2023-04-01T09:50:42.573Z,101391.25
2023-04-01T09:51:56.954Z,101386.25
2023-04-01T09:53:13.075Z,101394.94
2023-04-01T09:54:30.076Z,101383.34
2023-04-01T09:56:04.681Z,101396.88
2023-04-01T09:57:31.448Z,101386.03
2023-04-01T09:59:12.879Z,101389.75
2023-04-01T10:00:52.291Z,101392.66
2023-04-01T10:02:17.808Z,101386.06
2023-04-01T10:03:57.851Z,101383.66
2023-04-01T10:05:57.375Z,101378.81
2023-04-01T10:07:42.607Z,101381.31
2023-04-01T10:09:22.051Z,101374.56
2023-04-01T10:11:02.112Z,101374.00
2023-04-01T10:12:34.022Z,101369.53
2023-04-01T10:14:12.808Z,101371.63
2023-04-01T10:15:52.937Z,101367.13
2023-04-01T10:17:40.045Z,101365.03
2023-04-01T10:19:15.720Z,101357.53
2023-04-01T10:20:54.034Z,101360.09
2023-04-01T10:22:36.375Z,101363.50
2023-04-01T10:24:12.480Z,101369.13
2023-04-01T10:25:41.350Z,101368.03
2023-04-01T10:27:09.511Z,101372.69
2023-04-01T10:28:51.853Z,101367.56
2023-04-01T10:30:17.672Z,101365.50
2023-04-01T10:31:52.451Z,101361.53
2023-04-01T10:33:32.918Z,101365.81
2023-04-01T10:35:21.014Z,101361.75
2023-04-01T10:36:53.759Z,101356.44
2023-04-01T10:38:42.084Z,101356.84
2023-04-01T10:40:34.073Z,101358.41
2023-04-01T10:42:23.137Z,101358.03
2023-04-01T10:43:57.422Z,101363.16
2023-04-01T10:45:50.773Z,101360.41
2023-04-01T10:47:27.879Z,101353.06
2023-04-01T10:49:05.435Z,101352.94
2023-04-01T10:50:50.871Z,101347.41
2023-04-01T10:52:31.778Z,101335.41
2023-04-01T10:53:48.510Z,101339.91
2023-04-01T10:55:07.066Z,101342.03
2023-04-01T10:56:41.449Z,101323.31
2023-04-01T10:58:11.847Z,101324.13
2023-04-01T11:00:00.169Z,101324.63
2023-04-01T11:01:54.934Z,101326.56
2023-04-01T11:03:38.619Z,101322.94
2023-04-01T11:05:21.124Z,101323.94
2023-04-01T11:07:11.590Z,101334.00
2023-04-01T11:08:56.412Z,101332.28
2023-04-01T11:10:33.084Z,101325.81
2023-04-01T11:11:57.049Z,101328.47
2023-04-01T11:13:39.799Z,101322.09
2023-04-01T11:15:02.957Z,101324.69
2023-04-01T11:16:41.969Z,101308.81
2023-04-01T11:18:36.491Z,101313.63
2023-04-01T11:20:16.475Z,101312.50
2023-04-01T11:21:58.635Z,101308.06
2023-04-01T11:23:21.139Z,101303.47
2023-04-01T11:24:43.649Z,101301.59
2023-04-01T11:26:08.215Z,101305.81
2023-04-01T11:27:27.762Z,101289.19
2023-04-01T11:29:04.280Z,101294.78
2023-04-01T11:30:20.313Z,101285.16
2023-04-01T11:31:37.690Z,101296.13
2023-04-01T11:32:55.363Z,101295.25
2023-04-01T11:34:09.352Z,101297.47
2023-04-01T11:35:36.141Z,101291.72
2023-04-01T11:36:55.734Z,101293.25
2023-04-01T11:38:08.808Z,101286.03
2023-04-01T11:39:26.840Z,101285.16
2023-04-01T11:40:36.912Z,101280.00
2023-04-01T11:41:48.497Z,101274.44
2023-04-01T11:42:57.668Z,101280.41
2023-04-01T11:44:18.465Z,101289.34
2023-04-01T11:45:36.412Z,101288.22
2023-04-01T11:46:52.186Z,101293.00
2023-04-01T11:48:17.038Z,101292.56
2023-04-01T11:49:39.110Z,101287.50
2023-04-01T11:51:00.242Z,101279.00
2023-04-01T11:52:24.045Z,101283.66
2023-04-01T11:53:39.020Z,101281.94
2023-04-01T11:54:59.995Z,101296.69
2023-04-01T11:56:17.245Z,101293.34
2023-04-01T11:57:41.269Z,101299.63
2023-04-01T11:59:13.957Z,101296.53
2023-04-01T12:00:31.508Z,101292.91
2023-04-01T12:01:54.410Z,101287.72
2023-04-01T12:03:16.353Z,101290.31
2023-04-01T12:04:55.867Z,101296.00
2023-04-01T12:06:07.756Z,101288.03
2023-04-01T12:07:21.050Z,101290.63
2023-04-01T12:08:37.677Z,101289.50
2023-04-01T12:09:52.684Z,101295.09
2023-04-01T12:11:03.607Z,101296.75
2023-04-01T12:12:20.501Z,101287.53
2023-04-01T12:13:35.098Z,101285.44
2023-04-01T12:14:46.216Z,101272.34
2023-04-01T12:16:06.925Z,101268.09
2023-04-01T12:17:30.090Z,101265.28
2023-04-01T12:18:41.539Z,101261.75
2023-04-01T12:19:54.950Z,101254.63
2023-04-01T12:21:02.876Z,101258.25
2023-04-01T12:22:39.768Z,101253.72
2023-04-01T12:24:00.818Z,101262.00
2023-04-01T12:25:24.341Z,101251.69
2023-04-01T12:26:55.445Z,101258.59
2023-04-01T12:28:17.990Z,101251.84
2023-04-01T12:29:46.100Z,101252.88
2023-04-01T12:31:01.786Z,101250.22
2023-04-01T12:32:17.306Z,101255.53
2023-04-01T12:33:47.071Z,101244.16
2023-04-01T12:35:05.000Z,101241.00
2023-04-01T12:36:21.585Z,101243.09
2023-04-01T12:37:34.852Z,101241.28
2023-04-01T12:38:46.833Z,101240.22
2023-04-01T12:40:19.906Z,101234.94
2023-04-01T12:41:32.528Z,101241.53
2023-04-01T12:42:54.360Z,101243.66
2023-04-01T12:44:12.318Z,101243.91
2023-04-01T12:45:37.303Z,101244.97
2023-04-01T12:47:08.899Z,101241.03
2023-04-01T12:48:39.910Z,101249.69
2023-04-01T12:50:08.431Z,101246.56
2023-04-01T12:51:32.200Z,101243.63
2023-04-01T12:52:49.867Z,101237.75
2023-04-01T12:54:36.606Z,101236.03
2023-04-01T12:55:44.190Z,101240.75
2023-04-01T12:57:01.564Z,101228.41
2023-04-01T12:58:43.528Z,101228.63
2023-04-01T13:00:17.447Z,101229.94
2023-04-01T13:02:00.363Z,101232.00
2023-04-01T13:03:29.993Z,101236.78
2023-04-01T13:05:03.898Z,101228.06
2023-04-01T13:06:32.212Z,101223.19
2023-04-01T13:07:55.465Z,101225.38
2023-04-01T13:09:08.027Z,101224.91
2023-04-01T13:10:22.468Z,101220.72
2023-04-01T13:11:38.768Z,101219.91
2023-04-01T13:13:01.823Z,101213.59
2023-04-01T13:14:40.165Z,101214.84
2023-04-01T13:15:47.774Z,101218.88
2023-04-01T13:16:59.337Z,101223.22
2023-04-01T13:18:17.234Z,101207.19
2023-04-01T13:19:28.321Z,101207.41
2023-04-01T13:20:48.927Z,101211.91
2023-04-01T13:22:00.137Z,101212.56
2023-04-01T13:23:11.501Z,101211.41
2023-04-01T13:24:27.153Z,101207.00
2023-04-01T13:25:40.906Z,101206.97
2023-04-01T13:26:56.506Z,101211.47
2023-04-01T13:28:06.046Z,101199.09
2023-04-01T13:29:16.210Z,101199.06
2023-04-01T13:30:27.610Z,101193.34
2023-04-01T13:31:52.149Z,101201.78
2023-04-01T13:33:03.034Z,101193.28
2023-04-01T13:34:25.338Z,101189.44
2023-04-01T13:35:39.327Z,101191.00
2023-04-01T13:36:54.329Z,101187.41
2023-04-01T13:38:10.953Z,101193.38
2023-04-01T13:39:37.762Z,101184.09
2023-04-01T13:41:03.039Z,101181.13
2023-04-01T13:42:16.345Z,101182.44
2023-04-01T13:43:24.800Z,101184.69
2023-04-01T13:44:37.294Z,101191.41
2023-04-01T13:45:51.501Z,101195.59
2023-04-01T13:47:30.899Z,101187.09
2023-04-01T13:49:12.689Z,101186.84
2023-04-01T13:50:38.210Z,101178.88
2023-04-01T13:52:01.812Z,101170.94
2023-04-01T13:53:34.411Z,101161.25
2023-04-01T13:55:01.711Z,101160.66
2023-04-01T13:56:26.909Z,101161.13
2023-04-01T13:57:44.822Z,101158.63
2023-04-01T13:59:12.668Z,101157.53
2023-04-01T14:00:41.150Z,101156.97
2023-04-01T14:01:52.575Z,101154.16
2023-04-01T14:03:43.978Z,101152.88
2023-04-01T14:05:00.899Z,101151.09
2023-04-01T14:06:30.849Z,101149.81
2023-04-01T14:07:51.492Z,101146.19
2023-04-01T14:09:18.238Z,101143.97
2023-04-01T14:10:28.950Z,101140.00